sensor_id;sensor_type;location;lat;lon;timestamp;P1;durP1;ratioP1;P2;durP2;ratioP2
39322;SDS011;25036;53.638;10.134;2024-02-26T00:00:47;5.22;;;4.72;;
39322;SDS011;25036;53.638;10.134;2024-02-26T00:01:48;4.93;;;4.43;;
39322;SDS011;25036;53.638;10.134;2024-02-26T00:02:48;4.95;;;4.45;;
39322;SDS011;25036;53.638;10.134;2024-02-26T00:03:48;5.97;;;4.60;;
39322;SDS011;25036;53.638;10.134;2024-02-26T00:04:48;5.63;;;4.80;;
39322;SDS011;25036;53.638;10.134;2024-02-26T00:05:49;4.95;;;4.47;;
39322;SDS011;25036;53.638;10.134;2024-02-26T00:06:50;5.33;;;4.83;;
39322;SDS011;25036;53.638;10.134;2024-02-26T00:07:51;6.30;;;5.50;;
39322;SDS011;25036;53.638;10.134;2024-02-26T00:08:51;6.90;;;5.23;;
39322;SDS011;25036;53.638;10.134;2024-02-26T00:09:51;6.00;;;5.40;;
39322;SDS011;25036;53.638;10.134;2024-02-26T00:10:51;6.93;;;5.43;;
39322;SDS011;25036;53.638;10.134;2024-02-26T00:11:51;5.27;;;4.77;;
39322;SDS011;25036;53.638;10.134;2024-02-26T00:12:51;6.00;;;5.40;;
39322;SDS011;25036;53.638;10.134;2024-02-26T00:13:52;5.97;;;5.37;;
39322;SDS011;25036;53.638;10.134;2024-02-26T00:14:52;4.93;;;4.43;;
39322;SDS011;25036;53.638;10.134;2024-02-26T00:15:53;5.45;;;4.57;;
39322;SDS011;25036;53.638;10.134;2024-02-26T00:16:53;5.13;;;4.63;;
39322;SDS011;25036;53.638;10.134;2024-02-26T00:17:53;5.23;;;4.73;;
39322;SDS011;25036;53.638;10.134;2024-02-26T00:18:54;4.67;;;4.27;;
39322;SDS011;25036;53.638;10.134;2024-02-26T00:19:54;5.10;;;4.60;;
39322;SDS011;25036;53.638;10.134;2024-02-26T00:20:54;6.47;;;4.90;;
39322;SDS011;25036;53.638;10.134;2024-02-26T00:21:54;5.77;;;4.83;;
39322;SDS011;25036;53.638;10.134;2024-02-26T00:22:55;4.85;;;4.45;;
39322;SDS011;25036;53.638;10.134;2024-02-26T00:23:55;4.83;;;4.40;;
39322;SDS011;25036;53.638;10.134;2024-02-26T00:24:55;5.00;;;4.50;;
39322;SDS011;25036;53.638;10.134;2024-02-26T00:25:55;4.90;;;4.50;;
39322;SDS011;25036;53.638;10.134;2024-02-26T00:26:56;4.68;;;4.15;;
39322;SDS011;25036;53.638;10.134;2024-02-26T00:27:56;4.93;;;4.40;;
39322;SDS011;25036;53.638;10.134;2024-02-26T00:28:57;6.03;;;4.25;;
39322;SDS011;25036;53.638;10.134;2024-02-26T00:29:57;4.97;;;4.57;;
39322;SDS011;25036;53.638;10.134;2024-02-26T00:30:57;4.50;;;4.10;;
39322;SDS011;25036;53.638;10.134;2024-02-26T00:31:58;5.93;;;4.45;;
39322;SDS011;25036;53.638;10.134;2024-02-26T00:32:58;5.05;;;4.30;;
39322;SDS011;25036;53.638;10.134;2024-02-26T00:33:58;4.60;;;4.20;;
39322;SDS011;25036;53.638;10.134;2024-02-26T00:34:59;5.55;;;5.05;;
39322;SDS011;25036;53.638;10.134;2024-02-26T00:35:59;4.83;;;4.43;;
39322;SDS011;25036;53.638;10.134;2024-02-26T00:36:59;4.60;;;4.20;;
39322;SDS011;25036;53.638;10.134;2024-02-26T00:37:59;5.18;;;4.68;;
39322;SDS011;25036;53.638;10.134;2024-02-26T00:39:00;4.68;;;4.18;;
39322;SDS011;25036;53.638;10.134;2024-02-26T00:40:01;6.40;;;4.70;;
39322;SDS011;25036;53.638;10.134;2024-02-26T00:41:01;5.45;;;4.95;;
39322;SDS011;25036;53.638;10.134;2024-02-26T00:42:01;5.20;;;4.70;;
39322;SDS011;25036;53.638;10.134;2024-02-26T00:43:02;4.30;;;3.90;;
39322;SDS011;25036;53.638;10.134;2024-02-26T00:44:03;5.93;;;4.25;;
39322;SDS011;25036;53.638;10.134;2024-02-26T00:45:03;4.63;;;4.22;;
39322;SDS011;25036;53.638;10.134;2024-02-26T00:46:03;4.78;;;4.38;;
39322;SDS011;25036;53.638;10.134;2024-02-26T00:47:03;4.50;;;4.10;;
39322;SDS011;25036;53.638;10.134;2024-02-26T00:48:03;4.67;;;4.10;;
39322;SDS011;25036;53.638;10.134;2024-02-26T00:49:07;4.90;;;4.43;;
39322;SDS011;25036;53.638;10.134;2024-02-26T00:50:07;5.10;;;4.60;;
39322;SDS011;25036;53.638;10.134;2024-02-26T00:51:08;4.47;;;4.07;;
39322;SDS011;25036;53.638;10.134;2024-02-26T00:52:08;4.82;;;4.43;;
39322;SDS011;25036;53.638;10.134;2024-02-26T00:53:08;4.80;;;4.40;;
39322;SDS011;25036;53.638;10.134;2024-02-26T00:54:08;4.70;;;4.30;;
39322;SDS011;25036;53.638;10.134;2024-02-26T00:55:09;5.30;;;4.90;;
39322;SDS011;25036;53.638;10.134;2024-02-26T00:56:09;4.55;;;4.15;;
39322;SDS011;25036;53.638;10.134;2024-02-26T00:57:09;5.30;;;4.80;;
39322;SDS011;25036;53.638;10.134;2024-02-26T00:58:10;5.45;;;4.95;;
39322;SDS011;25036;53.638;10.134;2024-02-26T00:59:10;5.15;;;4.75;;
39322;SDS011;25036;53.638;10.134;2024-02-26T01:00:10;4.80;;;4.40;;
39322;SDS011;25036;53.638;10.134;2024-02-26T01:01:10;4.25;;;3.90;;
39322;SDS011;25036;53.638;10.134;2024-02-26T01:02:11;4.10;;;3.80;;
39322;SDS011;25036;53.638;10.134;2024-02-26T01:03:11;4.10;;;3.80;;
39322;SDS011;25036;53.638;10.134;2024-02-26T01:04:11;3.87;;;3.57;;
39322;SDS011;25036;53.638;10.134;2024-02-26T01:05:12;3.97;;;3.67;;
39322;SDS011;25036;53.638;10.134;2024-02-26T01:06:12;4.13;;;3.83;;
39322;SDS011;25036;53.638;10.134;2024-02-26T01:07:13;4.07;;;3.67;;
39322;SDS011;25036;53.638;10.134;2024-02-26T01:08:13;4.30;;;3.90;;
39322;SDS011;25036;53.638;10.134;2024-02-26T01:09:13;4.03;;;3.67;;
39322;SDS011;25036;53.638;10.134;2024-02-26T01:10:13;3.97;;;3.20;;
39322;SDS011;25036;53.638;10.134;2024-02-26T01:11:13;5.10;;;4.10;;
39322;SDS011;25036;53.638;10.134;2024-02-26T01:12:13;3.92;;;3.63;;
39322;SDS011;25036;53.638;10.134;2024-02-26T01:13:13;4.00;;;3.70;;
39322;SDS011;25036;53.638;10.134;2024-02-26T01:14:14;4.07;;;3.70;;
39322;SDS011;25036;53.638;10.134;2024-02-26T01:15:14;5.05;;;3.90;;
39322;SDS011;25036;53.638;10.134;2024-02-26T01:16:14;3.67;;;3.37;;
39322;SDS011;25036;53.638;10.134;2024-02-26T01:17:15;3.50;;;3.20;;
39322;SDS011;25036;53.638;10.134;2024-02-26T01:18:15;4.33;;;3.93;;
39322;SDS011;25036;53.638;10.134;2024-02-26T01:19:15;3.50;;;3.20;;
39322;SDS011;25036;53.638;10.134;2024-02-26T01:20:15;4.10;;;3.70;;
39322;SDS011;25036;53.638;10.134;2024-02-26T01:21:15;4.20;;;3.80;;
39322;SDS011;25036;53.638;10.134;2024-02-26T01:22:15;5.40;;;3.93;;
39322;SDS011;25036;53.638;10.134;2024-02-26T01:23:16;5.20;;;3.83;;
39322;SDS011;25036;53.638;10.134;2024-02-26T01:24:16;3.20;;;3.00;;
39322;SDS011;25036;53.638;10.134;2024-02-26T01:25:16;3.33;;;3.03;;
39322;SDS011;25036;53.638;10.134;2024-02-26T01:26:16;3.30;;;3.10;;
39322;SDS011;25036;53.638;10.134;2024-02-26T01:27:17;4.30;;;3.60;;
39322;SDS011;25036;53.638;10.134;2024-02-26T01:28:17;3.23;;;3.03;;
39322;SDS011;25036;53.638;10.134;2024-02-26T01:29:17;3.60;;;3.30;;
39322;SDS011;25036;53.638;10.134;2024-02-26T01:30:17;3.30;;;3.00;;
39322;SDS011;25036;53.638;10.134;2024-02-26T01:31:17;3.60;;;3.30;;
39322;SDS011;25036;53.638;10.134;2024-02-26T01:32:17;4.27;;;3.20;;
39322;SDS011;25036;53.638;10.134;2024-02-26T01:33:18;3.47;;;3.17;;
39322;SDS011;25036;53.638;10.134;2024-02-26T01:34:18;3.43;;;3.13;;
39322;SDS011;25036;53.638;10.134;2024-02-26T01:35:18;3.45;;;3.15;;
39322;SDS011;25036;53.638;10.134;2024-02-26T01:36:19;3.47;;;3.17;;
39322;SDS011;25036;53.638;10.134;2024-02-26T01:37:19;3.23;;;3.00;;
39322;SDS011;25036;53.638;10.134;2024-02-26T01:38:19;3.33;;;3.03;;
39322;SDS011;25036;53.638;10.134;2024-02-26T01:39:19;3.50;;;3.00;;
39322;SDS011;25036;53.638;10.134;2024-02-26T01:40:20;3.72;;;3.10;;
39322;SDS011;25036;53.638;10.134;2024-02-26T01:41:20;3.73;;;3.00;;
39322;SDS011;25036;53.638;10.134;2024-02-26T01:42:20;2.78;;;2.58;;
39322;SDS011;25036;53.638;10.134;2024-02-26T01:43:20;3.40;;;3.10;;
39322;SDS011;25036;53.638;10.134;2024-02-26T01:44:21;3.20;;;2.90;;
39322;SDS011;25036;53.638;10.134;2024-02-26T01:45:21;3.53;;;3.22;;
39322;SDS011;25036;53.638;10.134;2024-02-26T01:46:24;3.35;;;3.05;;
39322;SDS011;25036;53.638;10.134;2024-02-26T01:47:24;3.17;;;2.88;;
39322;SDS011;25036;53.638;10.134;2024-02-26T01:48:25;4.60;;;4.20;;
39322;SDS011;25036;53.638;10.134;2024-02-26T01:49:25;4.05;;;3.72;;
39322;SDS011;25036;53.638;10.134;2024-02-26T01:50:26;4.50;;;3.67;;
39322;SDS011;25036;53.638;10.134;2024-02-26T01:51:26;4.22;;;3.83;;
39322;SDS011;25036;53.638;10.134;2024-02-26T01:52:27;3.75;;;3.45;;
39322;SDS011;25036;53.638;10.134;2024-02-26T01:53:27;4.13;;;3.70;;
39322;SDS011;25036;53.638;10.134;2024-02-26T01:54:27;4.40;;;3.83;;
39322;SDS011;25036;53.638;10.134;2024-02-26T01:55:27;4.35;;;3.95;;
39322;SDS011;25036;53.638;10.134;2024-02-26T01:56:27;4.30;;;3.90;;
39322;SDS011;25036;53.638;10.134;2024-02-26T01:57:30;4.50;;;4.10;;
39322;SDS011;25036;53.638;10.134;2024-02-26T01:58:30;4.13;;;3.83;;
39322;SDS011;25036;53.638;10.134;2024-02-26T01:59:30;5.32;;;3.88;;
39322;SDS011;25036;53.638;10.134;2024-02-26T02:00:31;4.53;;;4.07;;
39322;SDS011;25036;53.638;10.134;2024-02-26T02:01:31;4.15;;;3.75;;
39322;SDS011;25036;53.638;10.134;2024-02-26T02:02:33;4.45;;;4.05;;
39322;SDS011;25036;53.638;10.134;2024-02-26T02:03:33;4.75;;;4.28;;
39322;SDS011;25036;53.638;10.134;2024-02-26T02:04:33;4.93;;;4.43;;
39322;SDS011;25036;53.638;10.134;2024-02-26T02:05:34;5.18;;;4.68;;
39322;SDS011;25036;53.638;10.134;2024-02-26T02:06:34;4.57;;;4.18;;
39322;SDS011;25036;53.638;10.134;2024-02-26T02:07:36;4.40;;;4.00;;
39322;SDS011;25036;53.638;10.134;2024-02-26T02:08:36;4.70;;;4.22;;
39322;SDS011;25036;53.638;10.134;2024-02-26T02:09:37;5.82;;;4.13;;
39322;SDS011;25036;53.638;10.134;2024-02-26T02:10:38;5.03;;;4.53;;
39322;SDS011;25036;53.638;10.134;2024-02-26T02:11:38;4.50;;;4.10;;
39322;SDS011;25036;53.638;10.134;2024-02-26T02:12:38;4.60;;;4.00;;
39322;SDS011;25036;53.638;10.134;2024-02-26T02:13:40;4.30;;;3.90;;
39322;SDS011;25036;53.638;10.134;2024-02-26T02:14:40;4.55;;;4.07;;
39322;SDS011;25036;53.638;10.134;2024-02-26T02:15:40;3.70;;;3.33;;
39322;SDS011;25036;53.638;10.134;2024-02-26T02:16:40;4.47;;;4.07;;
39322;SDS011;25036;53.638;10.134;2024-02-26T02:17:40;4.55;;;3.80;;
39322;SDS011;25036;53.638;10.134;2024-02-26T02:18:40;4.00;;;3.63;;
39322;SDS011;25036;53.638;10.134;2024-02-26T02:19:41;4.33;;;3.93;;
39322;SDS011;25036;53.638;10.134;2024-02-26T02:20:41;4.20;;;3.73;;
39322;SDS011;25036;53.638;10.134;2024-02-26T02:21:41;4.67;;;4.27;;
39322;SDS011;25036;53.638;10.134;2024-02-26T02:22:41;4.57;;;4.10;;
39322;SDS011;25036;53.638;10.134;2024-02-26T02:23:41;4.63;;;4.23;;
39322;SDS011;25036;53.638;10.134;2024-02-26T02:24:47;4.25;;;3.85;;
39322;SDS011;25036;53.638;10.134;2024-02-26T02:25:47;3.90;;;3.50;;
39322;SDS011;25036;53.638;10.134;2024-02-26T02:26:47;4.07;;;3.77;;
39322;SDS011;25036;53.638;10.134;2024-02-26T02:27:47;4.13;;;3.83;;
39322;SDS011;25036;53.638;10.134;2024-02-26T02:28:47;4.17;;;3.77;;
39322;SDS011;25036;53.638;10.134;2024-02-26T02:29:48;4.50;;;4.15;;
39322;SDS011;25036;53.638;10.134;2024-02-26T02:30:48;4.70;;;4.30;;
39322;SDS011;25036;53.638;10.134;2024-02-26T02:31:48;5.10;;;4.60;;
39322;SDS011;25036;53.638;10.134;2024-02-26T02:32:49;3.97;;;3.60;;
39322;SDS011;25036;53.638;10.134;2024-02-26T02:33:49;4.70;;;4.20;;
39322;SDS011;25036;53.638;10.134;2024-02-26T02:34:49;4.30;;;3.90;;
39322;SDS011;25036;53.638;10.134;2024-02-26T02:35:49;5.33;;;4.83;;
39322;SDS011;25036;53.638;10.134;2024-02-26T02:36:53;4.78;;;4.38;;
39322;SDS011;25036;53.638;10.134;2024-02-26T02:37:55;5.38;;;4.88;;
39322;SDS011;25036;53.638;10.134;2024-02-26T02:38:55;5.20;;;4.18;;
39322;SDS011;25036;53.638;10.134;2024-02-26T02:39:56;4.82;;;4.32;;
39322;SDS011;25036;53.638;10.134;2024-02-26T02:40:57;4.43;;;4.03;;
39322;SDS011;25036;53.638;10.134;2024-02-26T02:41:57;4.70;;;4.30;;
39322;SDS011;25036;53.638;10.134;2024-02-26T02:42:57;4.70;;;4.30;;
39322;SDS011;25036;53.638;10.134;2024-02-26T02:43:58;4.53;;;4.13;;
39322;SDS011;25036;53.638;10.134;2024-02-26T02:44:58;4.50;;;4.10;;
39322;SDS011;25036;53.638;10.134;2024-02-26T02:45:59;4.32;;;3.92;;
39322;SDS011;25036;53.638;10.134;2024-02-26T02:46:59;4.80;;;4.40;;
39322;SDS011;25036;53.638;10.134;2024-02-26T02:47:59;4.00;;;3.70;;
39322;SDS011;25036;53.638;10.134;2024-02-26T02:48:59;4.00;;;3.60;;
39322;SDS011;25036;53.638;10.134;2024-02-26T02:49:59;4.43;;;4.03;;
39322;SDS011;25036;53.638;10.134;2024-02-26T02:50:59;4.30;;;3.90;;
39322;SDS011;25036;53.638;10.134;2024-02-26T02:51:59;5.27;;;4.13;;
39322;SDS011;25036;53.638;10.134;2024-02-26T02:52:59;4.50;;;4.10;;
39322;SDS011;25036;53.638;10.134;2024-02-26T02:54:00;4.40;;;3.83;;
39322;SDS011;25036;53.638;10.134;2024-02-26T02:55:00;4.27;;;3.90;;
39322;SDS011;25036;53.638;10.134;2024-02-26T02:56:00;4.38;;;3.97;;
39322;SDS011;25036;53.638;10.134;2024-02-26T02:57:00;4.37;;;3.90;;
39322;SDS011;25036;53.638;10.134;2024-02-26T02:58:01;4.20;;;3.80;;
39322;SDS011;25036;53.638;10.134;2024-02-26T02:59:01;3.90;;;3.60;;
39322;SDS011;25036;53.638;10.134;2024-02-26T03:00:01;4.22;;;3.92;;
39322;SDS011;25036;53.638;10.134;2024-02-26T03:01:03;3.92;;;3.63;;
39322;SDS011;25036;53.638;10.134;2024-02-26T03:02:04;3.50;;;3.20;;
39322;SDS011;25036;53.638;10.134;2024-02-26T03:03:04;3.90;;;3.22;;
39322;SDS011;25036;53.638;10.134;2024-02-26T03:04:04;3.57;;;3.27;;
39322;SDS011;25036;53.638;10.134;2024-02-26T03:05:05;3.37;;;3.17;;
39322;SDS011;25036;53.638;10.134;2024-02-26T03:06:05;3.47;;;3.17;;
39322;SDS011;25036;53.638;10.134;2024-02-26T03:07:05;3.55;;;3.25;;
39322;SDS011;25036;53.638;10.134;2024-02-26T03:08:06;4.20;;;3.30;;
39322;SDS011;25036;53.638;10.134;2024-02-26T03:09:06;3.92;;;3.63;;
39322;SDS011;25036;53.638;10.134;2024-02-26T03:10:06;4.93;;;3.95;;
39322;SDS011;25036;53.638;10.134;2024-02-26T03:11:06;4.22;;;3.83;;
39322;SDS011;25036;53.638;10.134;2024-02-26T03:12:06;4.70;;;4.30;;
39322;SDS011;25036;53.638;10.134;2024-02-26T03:13:06;5.18;;;4.68;;
39322;SDS011;25036;53.638;10.134;2024-02-26T03:14:07;4.47;;;4.17;;
39322;SDS011;25036;53.638;10.134;2024-02-26T03:15:07;4.37;;;3.97;;
39322;SDS011;25036;53.638;10.134;2024-02-26T03:16:07;5.03;;;4.57;;
39322;SDS011;25036;53.638;10.134;2024-02-26T03:17:07;3.95;;;3.65;;
39322;SDS011;25036;53.638;10.134;2024-02-26T03:18:07;4.43;;;4.03;;
39322;SDS011;25036;53.638;10.134;2024-02-26T03:19:08;3.90;;;3.60;;
39322;SDS011;25036;53.638;10.134;2024-02-26T03:20:08;4.60;;;4.17;;
39322;SDS011;25036;53.638;10.134;2024-02-26T03:21:09;4.07;;;3.70;;
39322;SDS011;25036;53.638;10.134;2024-02-26T03:22:09;4.10;;;3.80;;
39322;SDS011;25036;53.638;10.134;2024-02-26T03:23:09;4.07;;;3.77;;
39322;SDS011;25036;53.638;10.134;2024-02-26T03:24:12;3.97;;;3.67;;
39322;SDS011;25036;53.638;10.134;2024-02-26T03:25:12;4.00;;;3.70;;
39322;SDS011;25036;53.638;10.134;2024-02-26T03:26:12;4.40;;;3.60;;
39322;SDS011;25036;53.638;10.134;2024-02-26T03:27:14;4.85;;;3.80;;
39322;SDS011;25036;53.638;10.134;2024-02-26T03:28:14;4.88;;;4.20;;
39322;SDS011;25036;53.638;10.134;2024-02-26T03:29:15;5.22;;;4.13;;
39322;SDS011;25036;53.638;10.134;2024-02-26T03:30:15;3.90;;;3.60;;
39322;SDS011;25036;53.638;10.134;2024-02-26T03:31:15;3.90;;;3.60;;
39322;SDS011;25036;53.638;10.134;2024-02-26T03:32:16;4.10;;;3.57;;
39322;SDS011;25036;53.638;10.134;2024-02-26T03:33:16;4.37;;;3.97;;
39322;SDS011;25036;53.638;10.134;2024-02-26T03:34:16;4.00;;;3.70;;
39322;SDS011;25036;53.638;10.134;2024-02-26T03:35:17;4.13;;;3.75;;
39322;SDS011;25036;53.638;10.134;2024-02-26T03:36:17;4.00;;;3.70;;
39322;SDS011;25036;53.638;10.134;2024-02-26T03:37:17;5.10;;;4.60;;
39322;SDS011;25036;53.638;10.134;2024-02-26T03:38:17;4.20;;;3.80;;
39322;SDS011;25036;53.638;10.134;2024-02-26T03:39:17;4.60;;;3.67;;
39322;SDS011;25036;53.638;10.134;2024-02-26T03:40:18;3.60;;;3.30;;
39322;SDS011;25036;53.638;10.134;2024-02-26T03:41:19;3.78;;;3.47;;
39322;SDS011;25036;53.638;10.134;2024-02-26T03:42:19;4.23;;;3.83;;
39322;SDS011;25036;53.638;10.134;2024-02-26T03:43:19;4.23;;;3.83;;
39322;SDS011;25036;53.638;10.134;2024-02-26T03:44:19;4.50;;;4.10;;
39322;SDS011;25036;53.638;10.134;2024-02-26T03:45:20;4.80;;;4.40;;
39322;SDS011;25036;53.638;10.134;2024-02-26T03:46:20;4.30;;;3.90;;
39322;SDS011;25036;53.638;10.134;2024-02-26T03:47:20;5.25;;;4.32;;
39322;SDS011;25036;53.638;10.134;2024-02-26T03:48:20;4.43;;;4.03;;
39322;SDS011;25036;53.638;10.134;2024-02-26T03:49:20;4.07;;;3.67;;
39322;SDS011;25036;53.638;10.134;2024-02-26T03:50:21;4.90;;;4.20;;
39322;SDS011;25036;53.638;10.134;2024-02-26T03:51:21;4.57;;;4.17;;
39322;SDS011;25036;53.638;10.134;2024-02-26T03:52:21;4.60;;;4.20;;
39322;SDS011;25036;53.638;10.134;2024-02-26T03:53:22;4.87;;;4.47;;
39322;SDS011;25036;53.638;10.134;2024-02-26T03:54:22;5.17;;;4.43;;
39322;SDS011;25036;53.638;10.134;2024-02-26T03:55:22;5.97;;;4.63;;
39322;SDS011;25036;53.638;10.134;2024-02-26T03:56:25;5.20;;;4.80;;
39322;SDS011;25036;53.638;10.134;2024-02-26T03:57:25;4.70;;;4.30;;
39322;SDS011;25036;53.638;10.134;2024-02-26T03:58:25;5.27;;;4.77;;
39322;SDS011;25036;53.638;10.134;2024-02-26T03:59:25;5.03;;;4.53;;
39322;SDS011;25036;53.638;10.134;2024-02-26T04:00:26;5.18;;;4.72;;
39322;SDS011;25036;53.638;10.134;2024-02-26T04:01:28;5.03;;;4.53;;
39322;SDS011;25036;53.638;10.134;2024-02-26T04:02:29;6.00;;;5.13;;
39322;SDS011;25036;53.638;10.134;2024-02-26T04:03:29;5.07;;;4.67;;
39322;SDS011;25036;53.638;10.134;2024-02-26T04:04:29;5.10;;;4.60;;
39322;SDS011;25036;53.638;10.134;2024-02-26T04:05:29;5.65;;;4.72;;
39322;SDS011;25036;53.638;10.134;2024-02-26T04:06:30;4.97;;;4.57;;
39322;SDS011;25036;53.638;10.134;2024-02-26T04:07:30;5.53;;;4.80;;
39322;SDS011;25036;53.638;10.134;2024-02-26T04:08:30;5.97;;;4.33;;
39322;SDS011;25036;53.638;10.134;2024-02-26T04:09:31;4.72;;;4.32;;
39322;SDS011;25036;53.638;10.134;2024-02-26T04:10:31;5.25;;;4.75;;
39322;SDS011;25036;53.638;10.134;2024-02-26T04:11:31;4.80;;;4.40;;
39322;SDS011;25036;53.638;10.134;2024-02-26T04:12:31;4.77;;;4.23;;
39322;SDS011;25036;53.638;10.134;2024-02-26T04:13:31;4.47;;;4.13;;
39322;SDS011;25036;53.638;10.134;2024-02-26T04:14:32;4.63;;;4.23;;
39322;SDS011;25036;53.638;10.134;2024-02-26T04:15:32;4.23;;;3.83;;
39322;SDS011;25036;53.638;10.134;2024-02-26T04:16:32;4.60;;;3.72;;
39322;SDS011;25036;53.638;10.134;2024-02-26T04:17:32;4.30;;;4.00;;
39322;SDS011;25036;53.638;10.134;2024-02-26T04:18:33;4.87;;;4.27;;
39322;SDS011;25036;53.638;10.134;2024-02-26T04:19:33;4.95;;;4.28;;
39322;SDS011;25036;53.638;10.134;2024-02-26T04:20:33;5.38;;;4.63;;
39322;SDS011;25036;53.638;10.134;2024-02-26T04:21:34;5.43;;;4.93;;
39322;SDS011;25036;53.638;10.134;2024-02-26T04:22:34;5.38;;;4.88;;
39322;SDS011;25036;53.638;10.134;2024-02-26T04:23:34;5.43;;;4.80;;
39322;SDS011;25036;53.638;10.134;2024-02-26T04:24:35;4.53;;;4.13;;
39322;SDS011;25036;53.638;10.134;2024-02-26T04:25:35;4.80;;;4.40;;
39322;SDS011;25036;53.638;10.134;2024-02-26T04:26:35;4.60;;;4.20;;
39322;SDS011;25036;53.638;10.134;2024-02-26T04:27:36;4.90;;;4.38;;
39322;SDS011;25036;53.638;10.134;2024-02-26T04:28:37;5.20;;;4.72;;
39322;SDS011;25036;53.638;10.134;2024-02-26T04:29:37;5.00;;;4.50;;
39322;SDS011;25036;53.638;10.134;2024-02-26T04:30:37;5.23;;;4.80;;
39322;SDS011;25036;53.638;10.134;2024-02-26T04:31:38;5.28;;;4.78;;
39322;SDS011;25036;53.638;10.134;2024-02-26T04:32:39;5.07;;;4.57;;
39322;SDS011;25036;53.638;10.134;2024-02-26T04:33:39;4.85;;;4.28;;
39322;SDS011;25036;53.638;10.134;2024-02-26T04:34:42;4.78;;;4.38;;
39322;SDS011;25036;53.638;10.134;2024-02-26T04:35:42;4.75;;;4.10;;
39322;SDS011;25036;53.638;10.134;2024-02-26T04:36:42;4.53;;;4.13;;
39322;SDS011;25036;53.638;10.134;2024-02-26T04:37:42;4.63;;;4.23;;
39322;SDS011;25036;53.638;10.134;2024-02-26T04:38:43;5.13;;;4.70;;
39322;SDS011;25036;53.638;10.134;2024-02-26T04:39:43;4.50;;;4.10;;
39322;SDS011;25036;53.638;10.134;2024-02-26T04:40:43;4.93;;;3.90;;
39322;SDS011;25036;53.638;10.134;2024-02-26T04:41:43;4.55;;;4.15;;
39322;SDS011;25036;53.638;10.134;2024-02-26T04:42:43;5.70;;;4.33;;
39322;SDS011;25036;53.638;10.134;2024-02-26T04:43:43;5.17;;;4.60;;
39322;SDS011;25036;53.638;10.134;2024-02-26T04:44:44;4.97;;;4.57;;
39322;SDS011;25036;53.638;10.134;2024-02-26T04:45:44;5.03;;;4.60;;
39322;SDS011;25036;53.638;10.134;2024-02-26T04:46:44;4.53;;;4.13;;
39322;SDS011;25036;53.638;10.134;2024-02-26T04:47:44;5.03;;;4.50;;
39322;SDS011;25036;53.638;10.134;2024-02-26T04:48:44;4.73;;;4.33;;
39322;SDS011;25036;53.638;10.134;2024-02-26T04:49:46;4.78;;;4.38;;
39322;SDS011;25036;53.638;10.134;2024-02-26T04:50:46;5.40;;;3.90;;
39322;SDS011;25036;53.638;10.134;2024-02-26T04:51:47;4.75;;;4.25;;
39322;SDS011;25036;53.638;10.134;2024-02-26T04:52:48;4.70;;;4.30;;
39322;SDS011;25036;53.638;10.134;2024-02-26T04:53:48;4.70;;;4.30;;
39322;SDS011;25036;53.638;10.134;2024-02-26T04:54:49;4.70;;;4.30;;
39322;SDS011;25036;53.638;10.134;2024-02-26T04:55:49;5.03;;;4.53;;
39322;SDS011;25036;53.638;10.134;2024-02-26T04:56:49;4.50;;;4.10;;
39322;SDS011;25036;53.638;10.134;2024-02-26T04:57:49;5.13;;;4.67;;
39322;SDS011;25036;53.638;10.134;2024-02-26T04:58:49;4.77;;;4.37;;
39322;SDS011;25036;53.638;10.134;2024-02-26T04:59:49;5.30;;;4.67;;
39322;SDS011;25036;53.638;10.134;2024-02-26T05:00:50;5.03;;;4.65;;
39322;SDS011;25036;53.638;10.134;2024-02-26T05:01:50;4.95;;;4.13;;
39322;SDS011;25036;53.638;10.134;2024-02-26T05:02:52;4.78;;;4.30;;
39322;SDS011;25036;53.638;10.134;2024-02-26T05:03:52;8.10;;;4.40;;
39322;SDS011;25036;53.638;10.134;2024-02-26T05:04:52;4.43;;;4.03;;
39322;SDS011;25036;53.638;10.134;2024-02-26T05:05:52;5.10;;;4.60;;
39322;SDS011;25036;53.638;10.134;2024-02-26T05:06:53;4.50;;;4.10;;
39322;SDS011;25036;53.638;10.134;2024-02-26T05:07:53;5.28;;;4.45;;
39322;SDS011;25036;53.638;10.134;2024-02-26T05:08:53;4.93;;;4.53;;
39322;SDS011;25036;53.638;10.134;2024-02-26T05:09:53;4.77;;;4.37;;
39322;SDS011;25036;53.638;10.134;2024-02-26T05:10:53;5.50;;;5.00;;
39322;SDS011;25036;53.638;10.134;2024-02-26T05:11:53;4.70;;;4.30;;
39322;SDS011;25036;53.638;10.134;2024-02-26T05:12:54;5.30;;;4.80;;
39322;SDS011;25036;53.638;10.134;2024-02-26T05:13:54;5.27;;;4.87;;
39322;SDS011;25036;53.638;10.134;2024-02-26T05:14:54;5.43;;;4.93;;
39322;SDS011;25036;53.638;10.134;2024-02-26T05:15:54;5.10;;;4.57;;
39322;SDS011;25036;53.638;10.134;2024-02-26T05:16:54;5.57;;;5.07;;
39322;SDS011;25036;53.638;10.134;2024-02-26T05:17:54;6.10;;;5.50;;
39322;SDS011;25036;53.638;10.134;2024-02-26T05:18:55;5.47;;;4.97;;
39322;SDS011;25036;53.638;10.134;2024-02-26T05:19:55;6.05;;;5.03;;
39322;SDS011;25036;53.638;10.134;2024-02-26T05:20:55;5.00;;;4.50;;
39322;SDS011;25036;53.638;10.134;2024-02-26T05:21:55;5.07;;;4.67;;
39322;SDS011;25036;53.638;10.134;2024-02-26T05:22:56;6.40;;;4.57;;
39322;SDS011;25036;53.638;10.134;2024-02-26T05:23:58;5.15;;;4.65;;
39322;SDS011;25036;53.638;10.134;2024-02-26T05:24:58;5.50;;;5.00;;
39322;SDS011;25036;53.638;10.134;2024-02-26T05:25:59;5.50;;;5.00;;
39322;SDS011;25036;53.638;10.134;2024-02-26T05:26:59;5.97;;;5.37;;
39322;SDS011;25036;53.638;10.134;2024-02-26T05:27:59;5.95;;;5.00;;
39322;SDS011;25036;53.638;10.134;2024-02-26T05:29:00;5.63;;;5.05;;
39322;SDS011;25036;53.638;10.134;2024-02-26T05:30:00;5.70;;;5.20;;
39322;SDS011;25036;53.638;10.134;2024-02-26T05:31:00;4.97;;;4.47;;
39322;SDS011;25036;53.638;10.134;2024-02-26T05:32:00;5.25;;;4.85;;
39322;SDS011;25036;53.638;10.134;2024-02-26T05:33:00;5.83;;;5.23;;
39322;SDS011;25036;53.638;10.134;2024-02-26T05:34:00;6.45;;;4.95;;
39322;SDS011;25036;53.638;10.134;2024-02-26T05:35:01;5.60;;;5.00;;
39322;SDS011;25036;53.638;10.134;2024-02-26T05:36:03;5.97;;;5.38;;
39322;SDS011;25036;53.638;10.134;2024-02-26T05:37:04;6.18;;;5.68;;
39322;SDS011;25036;53.638;10.134;2024-02-26T05:38:04;5.40;;;5.00;;
39322;SDS011;25036;53.638;10.134;2024-02-26T05:39:04;11.83;;;6.43;;
39322;SDS011;25036;53.638;10.134;2024-02-26T05:40:05;6.20;;;5.47;;
39322;SDS011;25036;53.638;10.134;2024-02-26T05:41:05;5.90;;;5.30;;
39322;SDS011;25036;53.638;10.134;2024-02-26T05:42:06;5.30;;;4.85;;
39322;SDS011;25036;53.638;10.134;2024-02-26T05:43:06;6.00;;;5.37;;
39322;SDS011;25036;53.638;10.134;2024-02-26T05:44:06;7.23;;;6.20;;
39322;SDS011;25036;53.638;10.134;2024-02-26T05:45:09;5.88;;;5.38;;
39322;SDS011;25036;53.638;10.134;2024-02-26T05:46:09;6.03;;;5.23;;
39322;SDS011;25036;53.638;10.134;2024-02-26T05:47:09;5.80;;;5.20;;
39322;SDS011;25036;53.638;10.134;2024-02-26T05:48:10;5.87;;;5.17;;
39322;SDS011;25036;53.638;10.134;2024-02-26T05:49:10;5.50;;;5.00;;
39322;SDS011;25036;53.638;10.134;2024-02-26T05:50:10;5.27;;;4.77;;
39322;SDS011;25036;53.638;10.134;2024-02-26T05:51:10;5.40;;;4.28;;
39322;SDS011;25036;53.638;10.134;2024-02-26T05:52:11;5.50;;;5.00;;
39322;SDS011;25036;53.638;10.134;2024-02-26T05:53:11;5.68;;;5.18;;
39322;SDS011;25036;53.638;10.134;2024-02-26T05:54:11;5.10;;;4.63;;
39322;SDS011;25036;53.638;10.134;2024-02-26T05:55:11;5.83;;;5.17;;
39322;SDS011;25036;53.638;10.134;2024-02-26T05:56:13;5.63;;;5.13;;
39322;SDS011;25036;53.638;10.134;2024-02-26T05:57:13;6.75;;;5.53;;
39322;SDS011;25036;53.638;10.134;2024-02-26T05:58:13;5.80;;;5.27;;